Webcam Meteoipassi more information Webcam Meteoipassi


altri nostri siti meteo:

Pomeziameteo 1Sito sul meteo

MeteopomeziaSito sul meteo

Pomeziameteo DashboardSito sul meteo

Caput FrigorisSito sul meteo

BarcellonameteoSito sul meteo

ViterbometeoSito sul meteo

MeteotortoretoSito sul meteo

TortoretometeolidoSito sul meteo

MeteoGonzagaSito sul meteo



There is a communication problem. Go directly to the Meteoalarm site : www.meteoalarm.eu and check the Weather-warnings there .


Notice: Undefined offset: 6 in /web/htdocs/www.meteoipassi.it/home/weather28/metar/metarDisplay.php on line 75

Notice: Undefined offset: 5 in /web/htdocs/www.meteoipassi.it/home/weather28/metar/metarDisplay.php on line 75

Report METAR

   
LIRQ - Firenze
Dati ricevuti: Jan 27 2022 8:50 am
Nebbia, Molto nuvoloso  
Nebbia, Molto nuvoloso  
   Vento: Variabile 3.7 km/h
Vento: Variabile 3.7 km/h
Temperatura: 4°C
P.to Rugiada: 4°C
Umidita: 100%
Barometro: 1028 hPa
Nuvole: Molto nuvoloso
Visibilita: 5 km
dettagli cloud: Molto nuvoloso 1066.8 m
LIRQ 270750Z VRB02KT 5000 BR BKN035 04/04 Q1028
LIRP - Lucca
Dati ricevuti: Jan 27 2022 8:45 am
Molto nuvoloso  
Molto nuvoloso  
   Vento: SE 7.4 km/h
Vento: SE 7.4 km/h
Temperatura: 6°C
Temperatura Vento: 4°C
P.to Rugiada: 5°C
Umidita: 93%
Barometro: 1028 hPa
Nuvole: Molto nuvoloso
Visibilita: 7 km
dettagli cloud: Parzialmente nuvoloso 762 m,
Molto nuvoloso 1219.2 m
LIRP 270745Z 13004KT 7000 SCT025 BKN040 06/05 Q1028 NOSIG
LIPE - Bologna
Dati ricevuti: Jan 27 2022 8:50 am
Nebbia, Coperto  
Nebbia, Coperto  
   Vento: Variabile 3.7 km/h
Vento: Variabile 3.7 km/h
Temperatura: 3°C
P.to Rugiada: 3°C
Umidita: 100%
Barometro: 1027 hPa
Nuvole: Coperto
Visibilita: 1 km
dettagli cloud: Coperto 61 m
LIPE 270750Z VRB02KT 0700 R12/P1500N R30/P1500N FG OVC002 03/03 Q1027
LIMP - Parma
Dati ricevuti: Jan 27 2022 8:50 am
Nebbia, Molto nuvoloso  
Nebbia, Molto nuvoloso  
   Vento: S 7.4 km/h
Vento: S 7.4 km/h
Temperatura: 3°C
Temperatura Vento: 1°C
P.to Rugiada: 3°C
Umidita: 100%
Barometro: 1027 hPa
Nuvole: Molto nuvoloso
Visibilita: 1 km
dettagli cloud: Molto nuvoloso 304.8 m
LIMP 270750Z 20004KT 1000 R20/P1500N BR BKN010 03/03 Q1027
  

Script sviluppato da  Saratoga-weather.org Adattato per il modello da  Weerstation Leuven

Potete trovare le nostre info meteo anche a:

European Weather Network

Weather Underground

AWEKAS

HAMweather, WeatherForYou, PWS Weather

Strumentazione usata:

Stazione meteo
Davis Vantage Vue

Programma gestore dati meteo
WVIEW

Server per i dati meteo
WDS-5

Provider
Anemos WDS-5

Davis Vantage Vue

WVIEW

WDS-5

Anemos WDS-5